Time;durP1;ratioP1;P1;durP2;ratioP2;P2;SDS_P1;SDS_P2;PMS_P1;PMS_P2;Temp;Humidity;BMP_temperature;BMP_pressure;BME280_temperature;BME280_humidity;BME280_pressure;Samples;Min_cycle;Max_cycle;Signal;HPM_P1;HPM_P2
2022/09/12 00:02:03;;;;;;;11.23;6.67;;;;;;;;;;754462;185;817352;-54
2022/09/12 00:04:28;;;;;;;10.07;6.90;;;;;;;;;;755083;184;920005;-54
2022/09/12 00:06:54;;;;;;;9.57;6.90;;;;;;;;;;759914;183;913022;-55
2022/09/12 00:09:20;;;;;;;8.30;6.80;;;;;;;;;;748858;184;916007;-54
2022/09/12 00:11:46;;;;;;;10.57;5.30;;;;;;;;;;758670;184;847227;-56
2022/09/12 00:14:13;;;;;;;10.10;6.43;;;;;;;;;;757598;183;825410;-54
2022/09/12 00:16:38;;;;;;;9.63;6.90;;;;;;;;;;756564;181;816841;-55
2022/09/12 00:19:04;;;;;;;8.90;6.20;;;;;;;;;;752219;184;917707;-55
2022/09/12 00:21:30;;;;;;;13.00;7.20;;;;;;;;;;752905;181;919198;-54
2022/09/12 00:23:56;;;;;;;7.00;5.90;;;;;;;;;;749931;184;876112;-54
2022/09/12 00:26:22;;;;;;;13.10;5.40;;;;;;;;;;751044;184;919701;-56
2022/09/12 00:28:47;;;;;;;9.10;5.70;;;;;;;;;;752837;180;920912;-55
2022/09/12 00:31:13;;;;;;;11.12;6.35;;;;;;;;;;760422;184;918641;-55
2022/09/12 00:33:39;;;;;;;7.20;5.57;;;;;;;;;;749814;184;922192;-55
2022/09/12 00:36:06;;;;;;;10.17;6.17;;;;;;;;;;754843;184;920878;-53
2022/09/12 00:38:32;;;;;;;7.30;4.80;;;;;;;;;;759523;182;919585;-53
2022/09/12 00:40:58;;;;;;;9.87;6.40;;;;;;;;;;752514;184;916566;-54
2022/09/12 00:43:38;;;;;;;8.88;6.18;;;;;;;;;;752235;184;916037;-55
2022/09/12 00:46:06;;;;;;;8.03;5.13;;;;;;;;;;748152;181;921015;-55
2022/09/12 00:48:32;;;;;;;7.60;5.17;;;;;;;;;;754970;186;816481;-56
2022/09/12 00:50:57;;;;;;;7.45;5.12;;;;;;;;;;758119;183;917499;-54
2022/09/12 00:53:23;;;;;;;11.03;5.30;;;;;;;;;;747722;184;919843;-56
2022/09/12 00:55:49;;;;;;;6.77;4.90;;;;;;;;;;747705;185;919400;-57
2022/09/12 00:58:17;;;;;;;6.30;4.50;;;;;;;;;;750718;185;919434;-56
2022/09/12 01:00:42;;;;;;;5.83;4.90;;;;;;;;;;751767;184;919382;-54
2022/09/12 01:03:08;;;;;;;8.27;5.43;;;;;;;;;;749729;185;918487;-54
2022/09/12 01:05:34;;;;;;;8.80;4.70;;;;;;;;;;758426;184;895815;-56
2022/09/12 01:08:00;;;;;;;6.57;5.27;;;;;;;;;;756861;184;919365;-56
2022/09/12 01:10:26;;;;;;;7.77;5.30;;;;;;;;;;751869;184;919284;-55
2022/09/12 01:12:52;;;;;;;6.63;5.33;;;;;;;;;;755929;185;818921;-56
2022/09/12 01:15:18;;;;;;;8.30;5.17;;;;;;;;;;755639;183;919384;-55
2022/09/12 01:17:51;;;;;;;8.20;4.70;;;;;;;;;;748913;185;922978;-55
2022/09/12 01:20:30;;;;;;;8.67;5.73;;;;;;;;;;753412;184;919820;-55
2022/09/12 01:23:15;;;;;;;6.63;5.30;;;;;;;;;;749182;185;923156;-54
2022/09/12 01:25:41;;;;;;;7.50;5.37;;;;;;;;;;751997;185;920875;-57
2022/09/12 01:28:22;;;;;;;6.83;5.47;;;;;;;;;;756809;185;825006;-55
2022/09/12 01:30:53;;;;;;;7.33;5.30;;;;;;;;;;755033;185;920034;-56
2022/09/12 01:33:21;;;;;;;7.30;5.57;;;;;;;;;;749443;185;920285;-55
2022/09/12 01:36:06;;;;;;;6.40;4.97;;;;;;;;;;757944;184;910215;-54
2022/09/12 01:38:31;;;;;;;7.33;5.10;;;;;;;;;;752766;183;816704;-56
2022/09/12 01:40:57;;;;;;;6.70;5.20;;;;;;;;;;754973;183;920026;-56
2022/09/12 01:43:23;;;;;;;7.30;5.70;;;;;;;;;;757763;185;912195;-54
2022/09/12 01:46:04;;;;;;;6.13;5.20;;;;;;;;;;754243;184;818064;-56
2022/09/12 01:48:30;;;;;;;6.90;4.95;;;;;;;;;;753867;183;919090;-55
2022/09/12 01:50:57;;;;;;;8.90;5.83;;;;;;;;;;757467;183;916853;-57
2022/09/12 01:53:23;;;;;;;7.33;5.60;;;;;;;;;;760575;183;917934;-56
2022/09/12 01:55:51;;;;;;;5.73;5.00;;;;;;;;;;753611;185;918702;-55
2022/09/12 01:58:18;;;;;;;8.37;5.13;;;;;;;;;;748681;183;922455;-56
2022/09/12 02:00:59;;;;;;;6.73;5.43;;;;;;;;;;751461;184;918476;-55
2022/09/12 02:03:26;;;;;;;7.10;4.80;;;;;;;;;;750532;185;920085;-55
2022/09/12 02:05:53;;;;;;;6.90;5.23;;;;;;;;;;763011;182;918366;-56
2022/09/12 02:08:18;;;;;;;8.07;4.65;;;;;;;;;;755516;184;921026;-57
2022/09/12 02:10:44;;;;;;;7.10;4.13;;;;;;;;;;748961;185;911601;-56
2022/09/12 02:13:11;;;;;;;12.37;5.23;;;;;;;;;;760109;184;921067;-55
2022/09/12 02:15:37;;;;;;;7.83;5.53;;;;;;;;;;754172;184;917515;-56
2022/09/12 02:18:02;;;;;;;7.53;5.30;;;;;;;;;;750623;184;919282;-56
2022/09/12 02:20:28;;;;;;;7.80;5.70;;;;;;;;;;752000;187;817198;-55
2022/09/12 02:22:54;;;;;;;12.03;6.20;;;;;;;;;;754056;185;817462;-57
2022/09/12 02:25:20;;;;;;;8.48;6.35;;;;;;;;;;749940;185;900428;-56
2022/09/12 02:27:46;;;;;;;21.03;8.17;;;;;;;;;;756749;182;919376;-55
2022/09/12 02:30:15;;;;;;;12.50;8.03;;;;;;;;;;758957;184;909505;-56
2022/09/12 02:32:41;;;;;;;16.87;10.00;;;;;;;;;;751858;184;922147;-56
2022/09/12 02:35:07;;;;;;;18.70;10.43;;;;;;;;;;751385;184;919910;-55
2022/09/12 02:37:47;;;;;;;13.05;10.07;;;;;;;;;;756674;184;873249;-55
2022/09/12 02:40:13;;;;;;;15.87;10.67;;;;;;;;;;762350;184;915860;-56
2022/09/12 02:42:39;;;;;;;15.30;11.85;;;;;;;;;;756955;184;920142;-55
2022/09/12 02:45:05;;;;;;;18.80;10.70;;;;;;;;;;753843;181;921814;-56
2022/09/12 02:47:47;;;;;;;14.47;10.70;;;;;;;;;;753996;184;916459;-55
2022/09/12 02:50:13;;;;;;;16.67;11.37;;;;;;;;;;759309;184;919755;-55
2022/09/12 02:52:38;;;;;;;13.77;10.37;;;;;;;;;;750607;184;919026;-55
2022/09/12 02:55:05;;;;;;;15.48;10.63;;;;;;;;;;747193;184;919475;-54
2022/09/12 02:57:31;;;;;;;14.83;10.93;;;;;;;;;;751519;183;920956;-55
2022/09/12 02:59:57;;;;;;;16.33;11.10;;;;;;;;;;751905;184;918072;-59
2022/09/12 03:02:39;;;;;;;14.53;11.10;;;;;;;;;;751749;184;920636;-55
2022/09/12 03:05:20;;;;;;;14.80;11.20;;;;;;;;;;749881;182;818791;-55
2022/09/12 03:07:50;;;;;;;20.17;11.80;;;;;;;;;;746472;185;918683;-55
2022/09/12 03:10:16;;;;;;;16.43;11.50;;;;;;;;;;755839;183;817040;-57
2022/09/12 03:13:01;;;;;;;15.07;11.60;;;;;;;;;;756537;185;817079;-56
2022/09/12 03:15:28;;;;;;;16.40;11.20;;;;;;;;;;758597;184;921793;-56
2022/09/12 03:17:54;;;;;;;12.80;9.93;;;;;;;;;;750255;185;921463;-56
2022/09/12 03:20:22;;;;;;;15.30;10.80;;;;;;;;;;757576;184;919319;-56
2022/09/12 03:22:49;;;;;;;14.73;10.30;;;;;;;;;;749740;184;919532;-55
2022/09/12 03:25:15;;;;;;;16.97;10.97;;;;;;;;;;757737;184;917087;-55
2022/09/12 03:27:42;;;;;;;18.23;11.53;;;;;;;;;;753508;184;919167;-57
2022/09/12 03:30:09;;;;;;;18.30;10.30;;;;;;;;;;753731;184;919093;-55
2022/09/12 03:32:40;;;;;;;17.20;12.13;;;;;;;;;;752656;185;918136;-57
2022/09/12 03:35:06;;;;;;;17.53;13.90;;;;;;;;;;759498;185;919431;-55
2022/09/12 03:37:32;;;;;;;19.00;12.80;;;;;;;;;;754055;184;921328;-57
2022/09/12 03:39:59;;;;;;;18.23;13.10;;;;;;;;;;747567;185;920715;-55
2022/09/12 03:42:24;;;;;;;18.17;12.65;;;;;;;;;;758414;184;927007;-57
2022/09/12 03:44:50;;;;;;;16.70;11.90;;;;;;;;;;755466;184;904731;-57
2022/09/12 03:47:16;;;;;;;17.50;11.27;;;;;;;;;;751581;185;920480;-55
2022/09/12 03:49:42;;;;;;;22.03;13.13;;;;;;;;;;758095;184;915122;-57
2022/09/12 03:52:08;;;;;;;18.17;12.50;;;;;;;;;;751939;184;920897;-56
2022/09/12 03:54:34;;;;;;;21.00;11.33;;;;;;;;;;753855;184;916385;-58
2022/09/12 03:57:00;;;;;;;19.03;12.57;;;;;;;;;;755384;182;917003;-56
2022/09/12 03:59:25;;;;;;;15.57;11.00;;;;;;;;;;754365;183;919040;-56
2022/09/12 04:01:51;;;;;;;17.87;13.20;;;;;;;;;;755409;184;819119;-56
2022/09/12 04:04:17;;;;;;;19.03;13.10;;;;;;;;;;749096;184;919248;-58
2022/09/12 04:06:43;;;;;;;21.60;12.07;;;;;;;;;;761956;184;819787;-57
2022/09/12 04:09:09;;;;;;;17.27;12.13;;;;;;;;;;754280;184;818755;-56
2022/09/12 04:11:35;;;;;;;18.80;12.60;;;;;;;;;;757236;184;919689;-57
2022/09/12 04:14:00;;;;;;;20.90;12.97;;;;;;;;;;755072;183;813246;-56
2022/09/12 04:16:26;;;;;;;18.80;12.47;;;;;;;;;;752122;184;919678;-56
2022/09/12 04:18:52;;;;;;;20.43;13.70;;;;;;;;;;754739;184;917385;-57
2022/09/12 04:21:18;;;;;;;17.10;12.07;;;;;;;;;;764038;184;625983;-56
2022/09/12 04:23:45;;;;;;;21.60;13.53;;;;;;;;;;753926;185;919264;-56
2022/09/12 04:26:12;;;;;;;18.90;12.00;;;;;;;;;;753707;184;919497;-55
2022/09/12 04:28:37;;;;;;;15.40;11.10;;;;;;;;;;756227;182;939925;-58
2022/09/12 04:31:04;;;;;;;17.47;12.70;;;;;;;;;;761235;185;631965;-56
2022/09/12 04:33:30;;;;;;;17.07;11.73;;;;;;;;;;754183;185;921781;-56
2022/09/12 04:35:56;;;;;;;17.67;12.05;;;;;;;;;;747110;185;919378;-56
2022/09/12 04:38:21;;;;;;;19.83;12.87;;;;;;;;;;759122;185;619844;-57
2022/09/12 04:40:47;;;;;;;22.00;13.10;;;;;;;;;;756553;184;617239;-58
2022/09/12 04:43:13;;;;;;;16.53;12.70;;;;;;;;;;759991;184;619227;-55
2022/09/12 04:45:39;;;;;;;19.62;13.07;;;;;;;;;;757443;185;814415;-58
2022/09/12 04:48:05;;;;;;;14.60;11.60;;;;;;;;;;747840;186;818011;-55
2022/09/12 04:50:31;;;;;;;18.63;12.40;;;;;;;;;;752877;182;814921;-55
2022/09/12 04:52:57;;;;;;;20.30;13.50;;;;;;;;;;757169;184;816665;-55
2022/09/12 04:55:24;;;;;;;18.63;13.40;;;;;;;;;;758127;184;918243;-55
2022/09/12 04:57:49;;;;;;;19.23;14.30;;;;;;;;;;748523;184;919303;-56
2022/09/12 05:00:15;;;;;;;20.40;14.37;;;;;;;;;;754000;184;816623;-56
2022/09/12 05:02:41;;;;;;;19.43;15.03;;;;;;;;;;755721;184;816967;-55
2022/09/12 05:05:07;;;;;;;21.83;13.57;;;;;;;;;;750390;184;919107;-56
2022/09/12 05:07:33;;;;;;;20.17;14.20;;;;;;;;;;754375;182;940235;-55
2022/09/12 05:09:59;;;;;;;19.30;13.60;;;;;;;;;;761557;183;917295;-57
2022/09/12 05:12:24;;;;;;;19.30;13.87;;;;;;;;;;750981;184;919890;-55
2022/09/12 05:14:50;;;;;;;21.90;13.40;;;;;;;;;;756703;184;919446;-57
2022/09/12 05:17:16;;;;;;;17.30;13.23;;;;;;;;;;757801;184;919917;-56
2022/09/12 05:19:42;;;;;;;18.77;12.80;;;;;;;;;;752974;185;920292;-56
2022/09/12 05:22:08;;;;;;;23.70;15.23;;;;;;;;;;754003;184;919902;-55
2022/09/12 05:24:34;;;;;;;19.97;13.00;;;;;;;;;;750178;181;919254;-57
2022/09/12 05:26:59;;;;;;;23.33;14.60;;;;;;;;;;760747;184;914242;-55
2022/09/12 05:29:25;;;;;;;19.93;13.97;;;;;;;;;;753234;184;915102;-55
2022/09/12 05:31:51;;;;;;;19.20;14.13;;;;;;;;;;753517;184;820203;-56
2022/09/12 05:34:17;;;;;;;20.83;14.50;;;;;;;;;;759017;183;920010;-58
2022/09/12 05:36:43;;;;;;;24.30;14.83;;;;;;;;;;753052;184;918948;-57
2022/09/12 05:39:09;;;;;;;23.43;15.30;;;;;;;;;;755668;184;919817;-56
2022/09/12 05:41:35;;;;;;;23.83;15.57;;;;;;;;;;755652;184;856073;-56
2022/09/12 05:44:00;;;;;;;24.00;14.30;;;;;;;;;;767804;180;925763;-55
2022/09/12 05:46:27;;;;;;;27.37;15.82;;;;;;;;;;749433;185;816790;-56
2022/09/12 05:48:54;;;;;;;22.97;14.93;;;;;;;;;;750281;185;920111;-55
2022/09/12 05:51:19;;;;;;;26.57;16.47;;;;;;;;;;756604;183;920119;-55
2022/09/12 05:53:45;;;;;;;27.90;17.07;;;;;;;;;;738709;187;919955;-56
2022/09/12 05:56:11;;;;;;;27.33;16.90;;;;;;;;;;738285;187;917462;-55
2022/09/12 05:58:37;;;;;;;23.10;17.70;;;;;;;;;;757319;185;915713;-56
2022/09/12 06:01:03;;;;;;;23.85;15.75;;;;;;;;;;755980;184;917906;-55
2022/09/12 06:03:29;;;;;;;23.80;17.30;;;;;;;;;;748543;185;919899;-56
2022/09/12 06:05:54;;;;;;;19.97;14.30;;;;;;;;;;752464;183;917520;-56
2022/09/12 06:08:20;;;;;;;25.73;16.27;;;;;;;;;;759899;181;919780;-56
2022/09/12 06:10:48;;;;;;;22.87;15.13;;;;;;;;;;748016;185;919723;-55
2022/09/12 06:13:12;;;;;;;20.03;14.13;;;;;;;;;;751147;183;920758;-57
2022/09/12 06:15:38;;;;;;;29.23;14.90;;;;;;;;;;755604;185;920231;-55
2022/09/12 06:18:04;;;;;;;20.83;13.70;;;;;;;;;;752888;182;919861;-56
2022/09/12 06:20:30;;;;;;;20.05;13.88;;;;;;;;;;754921;184;919762;-56
2022/09/12 06:22:55;;;;;;;31.13;16.30;;;;;;;;;;759337;183;920052;-59
2022/09/12 06:25:21;;;;;;;24.43;15.37;;;;;;;;;;749850;184;921742;-56
2022/09/12 06:27:47;;;;;;;22.13;14.80;;;;;;;;;;757033;184;920648;-56
2022/09/12 06:30:14;;;;;;;21.12;13.82;;;;;;;;;;759178;183;918746;-56
2022/09/12 06:32:39;;;;;;;17.20;12.80;;;;;;;;;;757662;184;833342;-56
2022/09/12 06:35:06;;;;;;;15.80;12.30;;;;;;;;;;757633;181;905736;-56
2022/09/12 06:37:31;;;;;;;17.10;13.50;;;;;;;;;;750414;184;817803;-56
2022/09/12 06:39:57;;;;;;;15.73;12.63;;;;;;;;;;759491;184;934764;-55
2022/09/12 06:42:23;;;;;;;17.43;12.43;;;;;;;;;;754098;184;919198;-59
2022/09/12 06:44:49;;;;;;;19.25;10.95;;;;;;;;;;752388;184;919265;-57
2022/09/12 06:47:15;;;;;;;15.40;11.30;;;;;;;;;;760236;184;884458;-55
2022/09/12 06:49:41;;;;;;;12.47;10.93;;;;;;;;;;750375;185;918530;-55
2022/09/12 06:52:06;;;;;;;14.73;11.90;;;;;;;;;;754164;184;918581;-55
2022/09/12 06:54:32;;;;;;;14.03;10.87;;;;;;;;;;759067;184;818199;-55
2022/09/12 06:56:58;;;;;;;12.87;9.90;;;;;;;;;;751845;185;919559;-55
2022/09/12 06:59:24;;;;;;;9.70;7.80;;;;;;;;;;750692;185;919752;-57
2022/09/12 07:01:50;;;;;;;13.77;7.00;;;;;;;;;;754292;184;918426;-55
2022/09/12 07:04:16;;;;;;;7.60;6.00;;;;;;;;;;758933;184;927131;-56
2022/09/12 07:06:43;;;;;;;11.23;6.12;;;;;;;;;;752660;180;918132;-56
2022/09/12 07:09:07;;;;;;;8.10;5.87;;;;;;;;;;751362;181;919831;-55
2022/09/12 07:11:33;;;;;;;11.80;6.17;;;;;;;;;;757655;184;619194;-56
2022/09/12 07:13:59;;;;;;;7.63;6.10;;;;;;;;;;752971;184;812634;-56
2022/09/12 07:16:25;;;;;;;9.40;6.47;;;;;;;;;;750067;185;920021;-56
2022/09/12 07:18:51;;;;;;;7.73;5.80;;;;;;;;;;758376;184;827158;-56
2022/09/12 07:21:17;;;;;;;9.17;5.90;;;;;;;;;;754098;184;919337;-56
2022/09/12 07:23:43;;;;;;;8.47;5.50;;;;;;;;;;754241;184;919213;-56
2022/09/12 07:26:09;;;;;;;6.17;5.10;;;;;;;;;;750110;185;918971;-55
2022/09/12 07:28:35;;;;;;;8.87;5.30;;;;;;;;;;756775;185;919077;-56
2022/09/12 07:31:05;;;;;;;10.00;6.20;;;;;;;;;;750235;185;923834;-55
2022/09/12 07:33:30;;;;;;;9.80;8.57;;;;;;;;;;755634;183;921141;-57
2022/09/12 07:35:56;;;;;;;8.77;5.20;;;;;;;;;;765051;184;817575;-55
2022/09/12 07:38:22;;;;;;;12.10;6.17;;;;;;;;;;752466;184;920746;-55
2022/09/12 07:40:48;;;;;;;9.63;6.20;;;;;;;;;;755559;184;919544;-56
2022/09/12 07:43:14;;;;;;;11.38;7.90;;;;;;;;;;755698;184;920363;-56
2022/09/12 07:45:41;;;;;;;10.13;7.13;;;;;;;;;;760491;184;818184;-55
2022/09/12 07:48:06;;;;;;;7.83;5.80;;;;;;;;;;754255;183;918860;-56
2022/09/12 07:50:32;;;;;;;9.20;5.37;;;;;;;;;;748674;184;919862;-56
2022/09/12 07:52:57;;;;;;;7.00;5.73;;;;;;;;;;755955;185;920022;-55
2022/09/12 07:55:23;;;;;;;8.47;5.70;;;;;;;;;;752511;184;920286;-55
2022/09/12 07:57:49;;;;;;;8.63;6.50;;;;;;;;;;755140;184;861438;-56
2022/09/12 08:00:15;;;;;;;11.27;6.27;;;;;;;;;;756638;185;917895;-55
2022/09/12 08:02:41;;;;;;;7.77;5.40;;;;;;;;;;754133;184;919332;-56
2022/09/12 08:05:07;;;;;;;6.87;5.50;;;;;;;;;;752827;185;1022324;-55
2022/09/12 08:07:33;;;;;;;6.30;5.10;;;;;;;;;;759398;184;917611;-56
2022/09/12 08:09:59;;;;;;;11.37;7.03;;;;;;;;;;754307;184;917746;-55
2022/09/12 08:12:25;;;;;;;7.87;6.33;;;;;;;;;;746464;184;920081;-55
2022/09/12 08:14:51;;;;;;;8.90;6.53;;;;;;;;;;749612;182;920020;-56
2022/09/12 08:17:17;;;;;;;9.93;6.03;;;;;;;;;;757974;184;913349;-55
2022/09/12 08:19:43;;;;;;;9.33;8.13;;;;;;;;;;752062;183;919672;-56
2022/09/12 08:22:08;;;;;;;10.60;6.43;;;;;;;;;;753979;184;919701;-56
2022/09/12 08:24:34;;;;;;;9.00;6.57;;;;;;;;;;755682;185;943186;-54
2022/09/12 08:27:00;;;;;;;9.70;6.53;;;;;;;;;;750438;184;920227;-54
2022/09/12 08:29:26;;;;;;;16.60;5.80;;;;;;;;;;748875;185;919612;-54
2022/09/12 08:31:52;;;;;;;14.20;7.27;;;;;;;;;;760171;184;922036;-56
2022/09/12 08:34:18;;;;;;;8.40;6.33;;;;;;;;;;749202;185;920925;-54
2022/09/12 08:36:43;;;;;;;9.20;5.57;;;;;;;;;;750040;185;924906;-56
2022/09/12 08:39:10;;;;;;;9.87;5.50;;;;;;;;;;752909;184;919233;-56
2022/09/12 08:41:38;;;;;;;9.10;5.20;;;;;;;;;;759416;183;808248;-54
2022/09/12 08:44:17;;;;;;;6.97;5.00;;;;;;;;;;752704;182;912808;-54
2022/09/12 08:46:50;;;;;;;6.13;4.30;;;;;;;;;;755344;183;916663;-54
2022/09/12 08:49:15;;;;;;;6.40;4.70;;;;;;;;;;756168;184;921745;-55
2022/09/12 08:51:41;;;;;;;5.83;4.67;;;;;;;;;;760089;184;917235;-54
2022/09/12 08:54:06;;;;;;;7.77;4.00;;;;;;;;;;752909;181;919600;-55
2022/09/12 08:56:34;;;;;;;8.53;5.03;;;;;;;;;;742386;184;928154;-53
2022/09/12 08:58:58;;;;;;;6.00;3.90;;;;;;;;;;749984;184;919718;-54
2022/09/12 09:01:25;;;;;;;7.67;4.87;;;;;;;;;;745229;187;919040;-54
2022/09/12 09:03:56;;;;;;;5.50;3.90;;;;;;;;;;749903;180;920283;-53
2022/09/12 09:06:32;;;;;;;6.43;4.33;;;;;;;;;;747082;185;919694;-55
2022/09/12 09:09:02;;;;;;;12.80;4.43;;;;;;;;;;743581;184;818379;-54
2022/09/12 09:11:44;;;;;;;13.43;6.53;;;;;;;;;;752736;185;927718;-54
2022/09/12 09:16:42;;;;;;;6.57;4.50;;;;;;;;;;755850;186;916863;-53
2022/09/12 09:19:13;;;;;;;7.00;4.90;;;;;;;;;;756716;184;814292;-55
2022/09/12 09:21:39;;;;;;;13.07;4.33;;;;;;;;;;756716;184;817326;-55
2022/09/12 09:24:06;;;;;;;6.73;3.90;;;;;;;;;;758207;185;915877;-55
2022/09/12 09:26:42;;;;;;;7.90;4.50;;;;;;;;;;759487;184;708226;-53
2022/09/12 09:29:10;;;;;;;5.50;4.27;;;;;;;;;;753421;185;815131;-54
2022/09/12 09:31:36;;;;;;;5.82;4.60;;;;;;;;;;751912;184;916565;-56
2022/09/12 09:34:02;;;;;;;9.43;4.50;;;;;;;;;;757204;184;917912;-56
2022/09/12 09:36:45;;;;;;;5.60;4.00;;;;;;;;;;752071;184;919722;-54
2022/09/12 09:39:12;;;;;;;6.60;3.83;;;;;;;;;;754214;184;920081;-56
2022/09/12 09:41:41;;;;;;;9.13;4.50;;;;;;;;;;755840;182;919707;-54
2022/09/12 09:44:07;;;;;;;10.07;5.40;;;;;;;;;;751565;185;919914;-54
2022/09/12 09:46:33;;;;;;;11.93;5.20;;;;;;;;;;751223;183;919882;-54
2022/09/12 09:48:59;;;;;;;5.80;4.33;;;;;;;;;;752413;184;921082;-54
2022/09/12 09:51:26;;;;;;;10.63;4.90;;;;;;;;;;756649;183;877743;-55
2022/09/12 09:53:52;;;;;;;12.90;4.83;;;;;;;;;;753729;185;918137;-56
2022/09/12 09:56:21;;;;;;;7.57;4.47;;;;;;;;;;760053;183;920024;-54
2022/09/12 09:58:46;;;;;;;7.10;4.47;;;;;;;;;;753168;184;920697;-54
2022/09/12 10:01:13;;;;;;;5.30;3.97;;;;;;;;;;754259;184;819644;-56
2022/09/12 10:03:39;;;;;;;7.70;4.57;;;;;;;;;;753814;184;921143;-55
2022/09/12 10:06:06;;;;;;;11.40;4.07;;;;;;;;;;751354;184;918788;-55
2022/09/12 10:08:32;;;;;;;5.50;4.43;;;;;;;;;;755031;184;916773;-55
2022/09/12 10:10:59;;;;;;;8.47;4.90;;;;;;;;;;751615;185;919137;-55
2022/09/12 10:13:24;;;;;;;5.93;4.30;;;;;;;;;;758024;184;919100;-54
2022/09/12 10:15:55;;;;;;;10.20;4.70;;;;;;;;;;748407;185;856919;-55
2022/09/12 10:18:21;;;;;;;6.90;3.93;;;;;;;;;;757086;184;816477;-54
2022/09/12 10:20:46;;;;;;;5.60;4.37;;;;;;;;;;752689;180;918857;-53
2022/09/12 10:23:35;;;;;;;6.07;4.07;;;;;;;;;;759208;184;919638;-54
2022/09/12 10:26:00;;;;;;;6.90;3.80;;;;;;;;;;749409;184;919466;-56
2022/09/12 10:28:28;;;;;;;5.83;3.63;;;;;;;;;;750422;184;918343;-56
2022/09/12 10:30:54;;;;;;;6.50;4.47;;;;;;;;;;757762;184;893868;-55
2022/09/12 10:33:20;;;;;;;7.60;4.57;;;;;;;;;;757853;183;919458;-56
2022/09/12 10:35:46;;;;;;;6.70;4.40;;;;;;;;;;753119;184;920049;-56
2022/09/12 10:38:12;;;;;;;8.93;4.33;;;;;;;;;;751159;185;919317;-56
2022/09/12 10:40:38;;;;;;;5.87;3.43;;;;;;;;;;756207;184;911855;-55
2022/09/12 10:43:07;;;;;;;9.03;3.67;;;;;;;;;;752790;181;917204;-55
2022/09/12 10:45:34;;;;;;;5.70;4.17;;;;;;;;;;752534;184;919606;-56
2022/09/12 10:47:58;;;;;;;7.77;4.67;;;;;;;;;;754240;185;814961;-55
2022/09/12 10:50:25;;;;;;;7.10;4.50;;;;;;;;;;756557;184;915053;-55
2022/09/12 10:52:51;;;;;;;8.73;3.70;;;;;;;;;;751019;182;916110;-55
2022/09/12 10:55:16;;;;;;;12.30;3.70;;;;;;;;;;749383;185;917603;-56
2022/09/12 10:57:53;;;;;;;7.05;3.80;;;;;;;;;;760568;184;912698;-55
2022/09/12 11:00:26;;;;;;;6.53;4.03;;;;;;;;;;753505;182;921119;-55
2022/09/12 11:02:50;;;;;;;12.68;4.20;;;;;;;;;;748636;185;817285;-55
2022/09/12 11:05:18;;;;;;;5.33;3.60;;;;;;;;;;749518;185;914679;-56
2022/09/12 11:07:45;;;;;;;5.23;3.60;;;;;;;;;;758626;183;816517;-57
2022/09/12 11:10:16;;;;;;;14.20;3.03;;;;;;;;;;752434;184;918562;-55
2022/09/12 11:12:56;;;;;;;6.07;3.40;;;;;;;;;;754774;183;918109;-55
2022/09/12 11:15:23;;;;;;;8.40;3.20;;;;;;;;;;752798;184;919760;-56
2022/09/12 11:17:50;;;;;;;4.93;3.00;;;;;;;;;;754904;184;917838;-56
2022/09/12 11:20:22;;;;;;;3.87;2.67;;;;;;;;;;752793;181;936880;-55
2022/09/12 11:22:51;;;;;;;3.80;2.43;;;;;;;;;;744457;184;920143;-56
2022/09/12 11:25:21;;;;;;;5.80;3.65;;;;;;;;;;745757;184;1746128;-55
2022/09/12 11:27:50;;;;;;;12.23;3.33;;;;;;;;;;746064;185;919702;-54
2022/09/12 11:30:16;;;;;;;7.03;3.50;;;;;;;;;;755198;182;919126;-55
2022/09/12 11:32:42;;;;;;;7.20;2.90;;;;;;;;;;756431;184;919291;-55
2022/09/12 11:35:26;;;;;;;5.03;3.27;;;;;;;;;;750080;185;918320;-56
2022/09/12 11:37:55;;;;;;;4.80;3.30;;;;;;;;;;759541;184;918588;-57
2022/09/12 11:40:37;;;;;;;6.77;2.77;;;;;;;;;;754550;184;919739;-55
2022/09/12 11:43:09;;;;;;;10.20;2.80;;;;;;;;;;751464;183;917770;-56
2022/09/12 11:45:37;;;;;;;4.47;2.53;;;;;;;;;;754880;184;816403;-56
2022/09/12 11:48:02;;;;;;;4.77;2.73;;;;;;;;;;751638;185;880159;-55
2022/09/12 11:50:28;;;;;;;7.50;3.20;;;;;;;;;;750386;184;918537;-55
2022/09/12 11:52:54;;;;;;;6.80;2.57;;;;;;;;;;752826;185;919033;-56
2022/09/12 11:55:23;;;;;;;4.83;2.50;;;;;;;;;;739507;188;916831;-55
2022/09/12 11:57:49;;;;;;;3.20;2.00;;;;;;;;;;752781;184;863465;-55
2022/09/12 12:00:16;;;;;;;5.30;3.37;;;;;;;;;;749350;185;916981;-55
2022/09/12 12:02:41;;;;;;;6.10;2.33;;;;;;;;;;758153;184;858671;-57
2022/09/12 12:05:08;;;;;;;4.90;2.60;;;;;;;;;;750050;185;872759;-56
2022/09/12 12:07:37;;;;;;;5.53;2.60;;;;;;;;;;754318;184;914974;-55
2022/09/12 12:10:04;;;;;;;7.80;2.80;;;;;;;;;;754062;185;814683;-55
2022/09/12 12:12:29;;;;;;;5.23;2.63;;;;;;;;;;759791;184;919452;-55
2022/09/12 12:14:55;;;;;;;4.43;3.00;;;;;;;;;;752410;184;919695;-55
2022/09/12 12:17:21;;;;;;;6.50;2.60;;;;;;;;;;748985;184;914859;-56
2022/09/12 12:19:49;;;;;;;3.07;2.30;;;;;;;;;;760361;181;897333;-55
2022/09/12 12:22:17;;;;;;;5.33;3.07;;;;;;;;;;754536;184;920066;-56
2022/09/12 12:24:48;;;;;;;6.37;2.60;;;;;;;;;;755000;180;915446;-55
2022/09/12 12:27:26;;;;;;;4.70;2.90;;;;;;;;;;755786;184;912883;-55
2022/09/12 12:29:52;;;;;;;4.13;2.70;;;;;;;;;;757313;183;921985;-56
2022/09/12 12:32:18;;;;;;;5.07;3.47;;;;;;;;;;751903;184;918655;-57
2022/09/12 12:34:44;;;;;;;3.63;2.13;;;;;;;;;;751029;184;919155;-55
2022/09/12 12:37:16;;;;;;;4.62;2.83;;;;;;;;;;757005;184;917769;-55
2022/09/12 12:39:59;;;;;;;4.87;2.67;;;;;;;;;;753645;185;920835;-56
2022/09/12 12:42:43;;;;;;;4.37;2.63;;;;;;;;;;760606;185;871709;-56
2022/09/12 12:45:16;;;;;;;5.60;2.60;;;;;;;;;;762298;184;816501;-55
2022/09/12 12:47:41;;;;;;;6.40;3.43;;;;;;;;;;759793;185;819811;-55
2022/09/12 12:50:25;;;;;;;3.40;2.20;;;;;;;;;;750861;185;819129;-54
2022/09/12 12:52:51;;;;;;;6.53;2.60;;;;;;;;;;753137;184;938453;-56
2022/09/12 12:55:33;;;;;;;6.60;2.78;;;;;;;;;;755367;184;920150;-56
2022/09/12 12:57:58;;;;;;;6.20;2.60;;;;;;;;;;754825;184;918002;-56
2022/09/12 13:00:39;;;;;;;4.22;2.90;;;;;;;;;;756869;184;920652;-55
2022/09/12 13:03:20;;;;;;;6.70;2.60;;;;;;;;;;760073;184;918913;-54
2022/09/12 13:05:46;;;;;;;5.70;2.33;;;;;;;;;;758276;185;919583;-54
2022/09/12 13:08:30;;;;;;;5.13;2.30;;;;;;;;;;753157;184;818735;-54
2022/09/12 13:10:57;;;;;;;6.50;2.40;;;;;;;;;;755963;184;817570;-55
2022/09/12 13:13:38;;;;;;;6.30;2.60;;;;;;;;;;751661;185;817612;-55
2022/09/12 13:16:04;;;;;;;4.10;2.30;;;;;;;;;;754520;184;1021810;-57
2022/09/12 13:18:35;;;;;;;4.13;2.33;;;;;;;;;;760553;184;920280;-54
2022/09/12 13:21:02;;;;;;;3.57;2.20;;;;;;;;;;757081;185;626787;-55
2022/09/12 13:23:28;;;;;;;5.67;2.70;;;;;;;;;;752895;185;629152;-54
2022/09/12 13:25:54;;;;;;;4.30;2.23;;;;;;;;;;755923;184;878932;-55
2022/09/12 13:28:20;;;;;;;3.60;2.33;;;;;;;;;;756662;185;720585;-55
2022/09/12 13:30:51;;;;;;;4.30;2.73;;;;;;;;;;756283;181;917220;-55
2022/09/12 13:33:21;;;;;;;5.28;2.75;;;;;;;;;;753864;184;921463;-54
2022/09/12 13:35:51;;;;;;;3.60;2.10;;;;;;;;;;754826;182;915411;-55
2022/09/12 13:38:32;;;;;;;8.00;2.50;;;;;;;;;;760616;183;853657;-57
2022/09/12 13:41:13;;;;;;;4.03;2.20;;;;;;;;;;752916;184;914809;-55
2022/09/12 13:43:40;;;;;;;3.53;2.47;;;;;;;;;;753314;183;922239;-56
2022/09/12 13:46:05;;;;;;;4.47;3.27;;;;;;;;;;755801;183;918773;-56
2022/09/12 13:48:32;;;;;;;4.30;2.77;;;;;;;;;;749662;182;919724;-55
2022/09/12 13:50:57;;;;;;;4.73;1.77;;;;;;;;;;760595;183;817130;-56
2022/09/12 13:53:23;;;;;;;5.07;2.30;;;;;;;;;;754073;184;918904;-54
2022/09/12 13:55:49;;;;;;;3.70;2.20;;;;;;;;;;752482;184;918025;-55
2022/09/12 13:58:15;;;;;;;5.00;3.47;;;;;;;;;;754824;184;921345;-55
2022/09/12 14:00:40;;;;;;;3.93;2.40;;;;;;;;;;762786;181;921626;-55
2022/09/12 14:05:47;;;;;;;4.07;2.70;;;;;;;;;;754081;184;818430;-56
2022/09/12 14:08:14;;;;;;;4.80;2.60;;;;;;;;;;754363;182;815879;-55
2022/09/12 14:10:39;;;;;;;3.10;2.50;;;;;;;;;;754370;184;817121;-55
2022/09/12 14:13:10;;;;;;;7.60;3.00;;;;;;;;;;755346;182;916601;-55
2022/09/12 14:15:35;;;;;;;3.83;2.30;;;;;;;;;;757893;184;808948;-55
2022/09/12 14:18:02;;;;;;;4.43;2.37;;;;;;;;;;754802;184;918365;-54
2022/09/12 14:20:31;;;;;;;5.30;2.77;;;;;;;;;;755940;180;918434;-56
2022/09/12 14:22:53;;;;;;;4.40;2.70;;;;;;;;;;748382;185;919289;-55
2022/09/12 14:25:19;;;;;;;4.10;2.40;;;;;;;;;;752258;184;893774;-56
2022/09/12 14:27:46;;;;;;;3.43;2.30;;;;;;;;;;758708;184;890133;-55
2022/09/12 14:30:16;;;;;;;4.70;2.47;;;;;;;;;;755343;184;919003;-55